Athens, West Virginia
Current Conditions -  °F | °C
As of 8:52 AM on Thursday 30 Oct 2014 (Local Time) from KBLF Reporting Station
Haze Haze  
Wind Chill: 33°   Ceiling: Unl
Heat Index: 38°   Visibility: 6mi
Dew Point: 34°   Wind: 6mph
Humidity: 86%   Direction: 250°WSW
Pressure: 30.1"   Gusts: NA
Location:  37.42°N, 81.02°W
Report Text: KBLF 301252Z AUTO 25005KT 6SM BR CLR 03/01 A3010 RMK AO2 SLP193 T00330011
Loading
Personal Weather Stations






























Interactive Weather Map
Tropical Storm Tracking
New forecast layout! Learn more

10-Day Weather Forecast

Advertisements
Track Severe Weather on mobile